Time;durP1;ratioP1;P1;durP2;ratioP2;P2;SDS_P1;SDS_P2;PMS_P1;PMS_P2;Temp;Humidity;BMP_temperature;BMP_pressure;BME280_temperature;BME280_humidity;BME280_pressure;Samples;Min_cycle;Max_cycle;Signal;HPM_P1;HPM_P2
2022/08/10 00:02:48;;;;;;;3.58;3.28;;;22.20;58.00;;;;;;4900968;29;20187;-90
2022/08/10 00:05:34;;;;;;;4.28;3.42;;;22.20;57.90;;;;;;4887366;29;20284;-89
2022/08/10 00:08:05;;;;;;;3.80;3.25;;;22.20;58.00;;;;;;4888757;29;20172;-89
2022/08/10 00:11:00;;;;;;;3.47;3.03;;;22.20;58.00;;;;;;4886639;29;20196;-89
2022/08/10 00:13:35;;;;;;;3.40;3.10;;;22.20;58.00;;;;;;4922135;29;20190;-89
2022/08/10 00:16:21;;;;;;;;;;;;;;;;;;;;;
2022/08/10 00:18:59;;;;;;;3.70;3.30;;;22.20;58.00;;;;;;4955244;28;20258;-89
2022/08/10 00:21:33;;;;;;;3.40;3.10;;;22.20;58.00;;;;;;5024442;28;20261;-89
2022/08/10 00:24:02;;;;;;;3.50;3.05;;;22.20;58.00;;;;;;5041329;28;20182;-89
2022/08/10 00:26:42;;;;;;;3.58;3.17;;;22.20;58.00;;;;;;5007719;28;20184;-89
2022/08/10 00:29:15;;;;;;;3.67;3.20;;;22.20;58.00;;;;;;5040436;28;20187;-89
2022/08/10 00:31:50;;;;;;;3.33;2.85;;;22.20;58.00;;;;;;5018970;28;20195;-89
2022/08/10 00:34:51;;;;;;;3.45;3.15;;;22.20;58.10;;;;;;5002322;28;20206;-89
2022/08/10 00:37:35;;;;;;;3.63;3.25;;;22.20;58.00;;;;;;5002478;28;20188;-89
2022/08/10 00:40:04;;;;;;;3.58;3.13;;;22.10;58.00;;;;;;4971353;28;20722;-89
2022/08/10 00:42:40;;;;;;;3.42;3.13;;;22.10;58.00;;;;;;4999119;28;20271;-89
2022/08/10 00:45:12;;;;;;;3.47;3.17;;;22.10;58.00;;;;;;4980729;28;20208;-89
2022/08/10 00:48:05;;;;;;;3.50;3.20;;;22.20;58.00;;;;;;4960055;28;20209;-89
2022/08/10 00:50:43;;;;;;;3.33;3.03;;;22.10;58.10;;;;;;4963427;28;20927;-89
2022/08/10 00:53:35;;;;;;;3.83;3.20;;;22.10;58.10;;;;;;4916536;28;20186;-89
2022/08/10 00:56:12;;;;;;;3.78;3.20;;;22.10;58.10;;;;;;4898470;29;20184;-89
2022/08/10 00:58:48;;;;;;;3.45;2.95;;;22.10;58.10;;;;;;4906404;29;20596;-89
2022/08/10 01:01:29;;;;;;;3.80;3.20;;;22.10;58.10;;;;;;4929126;29;20198;-89
2022/08/10 01:04:13;;;;;;;;;;;;;;;;;;;;;
2022/08/10 01:06:50;;;;;;;3.50;3.15;;;22.10;58.20;;;;;;4947603;29;20244;-89
2022/08/10 01:10:02;;;;;;;3.63;3.33;;;22.10;58.20;;;;;;4929297;29;20181;-89
2022/08/10 01:12:52;;;;;;;3.42;3.05;;;22.10;58.10;;;;;;4940491;29;20649;-89
2022/08/10 01:15:28;;;;;;;4.07;3.50;;;22.10;58.20;;;;;;4926912;29;20190;-89
2022/08/10 01:18:04;;;;;;;3.20;2.78;;;22.10;58.20;;;;;;4943792;29;20190;-89
2022/08/10 01:20:37;;;;;;;3.33;3.00;;;22.10;58.20;;;;;;4943542;29;20233;-89
2022/08/10 01:23:41;;;;;;;3.45;3.15;;;22.10;58.20;;;;;;4955670;28;20220;-89
2022/08/10 01:26:41;;;;;;;3.28;2.97;;;22.10;58.20;;;;;;4999256;28;20275;-89
2022/08/10 01:29:35;;;;;;;3.30;3.00;;;22.10;58.20;;;;;;4997798;28;20188;-89
2022/08/10 01:32:11;;;;;;;3.55;3.13;;;22.10;58.20;;;;;;4998661;28;20664;-89
2022/08/10 01:34:49;;;;;;;3.55;2.95;;;22.10;58.20;;;;;;4997747;28;20188;-89
2022/08/10 01:37:23;;;;;;;3.40;2.90;;;22.10;58.20;;;;;;4982686;28;20207;-89
2022/08/10 01:40:05;;;;;;;3.55;3.22;;;22.10;58.20;;;;;;4963125;28;20217;-88
2022/08/10 01:42:38;;;;;;;3.40;3.10;;;22.10;58.20;;;;;;5001596;28;20200;-89
2022/08/10 01:45:13;;;;;;;3.88;3.30;;;22.00;58.20;;;;;;4969172;28;20184;-88
2022/08/10 01:50:46;;;;;;;3.42;3.10;;;22.10;58.20;;;;;;4948645;29;20188;-89
2022/08/10 01:53:23;;;;;;;3.58;3.15;;;22.00;58.50;;;;;;4906146;29;20231;-87
2022/08/10 01:56:15;;;;;;;3.50;3.10;;;22.10;58.20;;;;;;4890313;29;20295;-89
2022/08/10 01:58:50;;;;;;;3.08;2.78;;;22.10;58.20;;;;;;4920760;29;20253;-90
2022/08/10 02:01:51;;;;;;;3.65;3.25;;;22.00;58.20;;;;;;4927822;29;20188;-88
2022/08/10 02:04:32;;;;;;;3.42;3.05;;;22.00;58.20;;;;;;4889583;29;20187;-88
2022/08/10 02:07:08;;;;;;;3.63;3.17;;;22.10;58.30;;;;;;4877319;29;20310;-89
2022/08/10 02:09:48;;;;;;;3.60;3.10;;;22.10;58.20;;;;;;4904818;29;20213;-88
2022/08/10 02:12:30;;;;;;;3.50;3.20;;;22.00;58.20;;;;;;4921869;29;20183;-89
2022/08/10 02:15:21;;;;;;;3.42;3.13;;;22.10;58.20;;;;;;4902498;29;20755;-89
2022/08/10 02:17:56;;;;;;;3.45;3.05;;;22.00;58.20;;;;;;4899718;29;20188;-89
2022/08/10 02:20:42;;;;;;;3.38;2.97;;;22.00;58.30;;;;;;4881919;29;20297;-89
2022/08/10 02:23:38;;;;;;;3.33;3.00;;;22.00;58.20;;;;;;4866907;29;20200;-89
2022/08/10 02:26:19;;;;;;;3.50;3.13;;;22.00;58.20;;;;;;4818726;29;20195;-89
2022/08/10 02:28:54;;;;;;;3.05;2.75;;;22.00;58.30;;;;;;4852195;29;20177;-89
2022/08/10 02:31:34;;;;;;;3.50;3.10;;;22.00;58.30;;;;;;4865465;29;20196;-89
2022/08/10 02:34:18;;;;;;;3.08;2.78;;;22.00;58.30;;;;;;4856104;29;20181;-89
2022/08/10 02:36:49;;;;;;;3.22;2.90;;;22.00;58.30;;;;;;4892368;29;20686;-89
2022/08/10 02:39:37;;;;;;;3.60;3.10;;;22.00;58.70;;;;;;4892694;29;20247;-89
2022/08/10 02:42:23;;;;;;;3.70;3.30;;;22.00;58.30;;;;;;4926955;28;20187;-88
2022/08/10 02:45:14;;;;;;;3.17;2.85;;;22.00;58.30;;;;;;4883389;29;20180;-89
2022/08/10 02:48:06;;;;;;;3.60;3.10;;;22.00;58.40;;;;;;4926729;29;20657;-89
2022/08/10 02:50:43;;;;;;;3.50;3.10;;;22.00;58.30;;;;;;4960366;28;20194;-89
2022/08/10 02:53:39;;;;;;;3.63;3.17;;;22.00;58.40;;;;;;4945174;29;20743;-89
2022/08/10 02:56:59;;;;;;;3.70;2.95;;;22.00;58.40;;;;;;4935222;29;20282;-89
2022/08/10 02:59:28;;;;;;;3.30;3.00;;;22.00;58.40;;;;;;4945229;29;20291;-89
2022/08/10 03:02:24;;;;;;;3.80;3.40;;;22.00;58.40;;;;;;4897350;29;20208;-89
2022/08/10 03:05:23;;;;;;;3.30;3.00;;;22.00;58.40;;;;;;4964290;28;20324;-90
2022/08/10 03:08:32;;;;;;;3.15;2.80;;;21.90;58.30;;;;;;4945849;29;20185;-90
2022/08/10 03:11:17;;;;;;;3.20;2.90;;;22.00;58.40;;;;;;4927033;29;20187;-89
2022/08/10 03:13:52;;;;;;;4.00;3.55;;;21.90;58.40;;;;;;4923361;29;20191;-89
2022/08/10 03:16:26;;;;;;;3.78;3.30;;;22.00;58.40;;;;;;4910936;29;20186;-89
2022/08/10 03:19:24;;;;;;;3.30;3.00;;;22.00;58.40;;;;;;4891597;29;20274;-89
2022/08/10 03:22:03;;;;;;;3.67;3.10;;;21.90;58.50;;;;;;4882020;29;20824;-89
2022/08/10 03:24:38;;;;;;;3.30;3.00;;;21.90;58.40;;;;;;4845548;29;20287;-90
2022/08/10 03:27:33;;;;;;;3.50;2.88;;;22.00;58.50;;;;;;4833019;29;20278;-89
2022/08/10 03:31:04;;;;;;;3.08;2.78;;;22.00;58.50;;;;;;4798629;29;20238;-89
2022/08/10 03:34:00;;;;;;;3.63;2.95;;;22.00;58.50;;;;;;4791029;29;20668;-89
2022/08/10 03:37:08;;;;;;;;;;;;;;;;;;;;;
2022/08/10 03:39:51;;;;;;;3.13;2.83;;;22.00;58.50;;;;;;4825096;29;20314;-90
2022/08/10 03:42:51;;;;;;;3.28;2.97;;;21.90;58.50;;;;;;4808366;29;20197;-90
2022/08/10 03:45:42;;;;;;;4.03;2.80;;;22.00;58.50;;;;;;4775132;30;20184;-90
2022/08/10 03:48:59;;;;;;;3.58;3.10;;;22.00;58.50;;;;;;4734594;30;20194;-89
2022/08/10 03:55:09;;;;;;;3.40;3.10;;;21.90;58.50;;;;;;4743333;30;20200;-88
2022/08/10 03:58:33;;;;;;;3.20;2.90;;;21.90;58.50;;;;;;4816681;29;20191;-89
2022/08/10 04:01:24;;;;;;;3.35;3.05;;;21.90;58.40;;;;;;4819049;29;20258;-88
2022/08/10 04:04:13;;;;;;;3.95;2.90;;;22.00;58.50;;;;;;4814494;29;20194;-89
2022/08/10 04:06:55;;;;;;;3.00;2.63;;;22.00;58.50;;;;;;4778240;30;20223;-89
2022/08/10 04:09:57;;;;;;;3.00;2.70;;;21.90;58.50;;;;;;4791626;30;20218;-89
2022/08/10 04:12:34;;;;;;;3.03;2.72;;;21.90;58.50;;;;;;4793248;29;20291;-89
2022/08/10 04:15:11;;;;;;;3.15;2.85;;;21.90;58.50;;;;;;4808337;29;20195;-89
2022/08/10 04:17:49;;;;;;;3.28;2.60;;;21.90;58.50;;;;;;4773327;30;20214;-89
2022/08/10 04:23:39;;;;;;;3.78;3.20;;;21.90;58.50;;;;;;4788517;29;20579;-89
2022/08/10 04:29:05;;;;;;;2.97;2.67;;;21.90;58.50;;;;;;4805408;29;20648;-88
2022/08/10 04:31:53;;;;;;;;;;;;;;;;;;;;;
2022/08/10 04:34:41;;;;;;;3.42;3.00;;;21.90;58.60;;;;;;4812891;29;20286;-89
2022/08/10 04:37:44;;;;;;;3.60;3.13;;;21.90;58.60;;;;;;4841219;29;20210;-89
2022/08/10 04:40:33;;;;;;;3.75;2.70;;;21.90;58.70;;;;;;4809176;29;20244;-88
2022/08/10 04:43:36;;;;;;;3.35;3.05;;;21.90;58.60;;;;;;4822622;29;20387;-89
2022/08/10 04:46:29;;;;;;;3.20;2.90;;;21.90;58.70;;;;;;4837421;29;20186;-89
2022/08/10 04:49:07;;;;;;;3.47;3.05;;;21.90;58.70;;;;;;4835691;29;20190;-89
2022/08/10 04:55:07;;;;;;;3.50;3.10;;;21.80;58.80;;;;;;4859633;29;20213;-90
2022/08/10 04:57:58;;;;;;;3.22;2.92;;;21.90;58.80;;;;;;4860457;29;20190;-89
2022/08/10 05:00:53;;;;;;;3.67;3.28;;;21.90;58.70;;;;;;4847974;29;20216;-90
2022/08/10 05:03:38;;;;;;;3.00;2.67;;;21.90;58.70;;;;;;4830060;29;20197;-89
2022/08/10 05:06:51;;;;;;;3.35;3.05;;;21.90;59.00;;;;;;4815730;29;20196;-90
2022/08/10 05:10:09;;;;;;;2.53;2.28;;;21.90;59.20;;;;;;4793923;30;20199;-90
2022/08/10 05:13:07;;;;;;;3.00;2.60;;;21.90;59.60;;;;;;4798425;29;20192;-89
2022/08/10 05:16:01;;;;;;;2.90;2.60;;;21.80;60.10;;;;;;4793953;29;20195;-90
2022/08/10 05:19:37;;;;;;;2.53;2.33;;;21.70;60.50;;;;;;4743103;30;20200;-89
2022/08/10 05:22:01;;;;;;;;;;;;;;;;;;;;;
2022/08/10 05:25:24;;;;;;;3.15;2.78;;;21.60;61.10;;;;;;4727209;30;20263;-89
2022/08/10 05:28:47;;;;;;;2.80;2.60;;;21.60;61.40;;;;;;4722435;30;20272;-89
2022/08/10 05:31:34;;;;;;;;;;;;;;;;;;;;;
2022/08/10 05:37:31;;;;;;;3.10;2.80;;;21.50;62.20;;;;;;4730823;30;20276;-89
2022/08/10 05:47:20;;;;;;;2.90;2.60;;;21.50;62.60;;;;;;4688224;30;20629;-90
2022/08/10 05:49:47;;;;;;;2.92;2.63;;;21.50;62.50;;;;;;4705673;30;20208;-90
2022/08/10 05:53:32;;;;;;;3.08;2.78;;;21.50;62.50;;;;;;4708220;30;20199;-89
2022/08/10 05:55:40;;;;;;;3.20;2.90;;;21.50;62.60;;;;;;4699821;30;20195;-90
2022/08/10 05:58:32;;;;;;;3.03;2.72;;;21.50;62.70;;;;;;4689308;30;20286;-89
2022/08/10 06:22:38;;;;;;;3.60;3.13;;;21.50;62.40;;;;;;4802487;29;20226;-89
2022/08/10 06:32:46;;;;;;;2.97;2.67;;;21.70;61.60;;;;;;4833121;29;20259;-90
2022/08/10 13:15:26;;;;;;;5.00;2.65;;;23.40;58.80;;;;;;5089762;23;20224;-89
2022/08/10 13:18:21;;;;;;;;;;;;;;;;;;;;;
2022/08/10 13:21:53;;;;;;;;;;;;;;;;;;;;;
2022/08/10 13:24:32;;;;;;;3.40;2.60;;;23.40;58.70;;;;;;4850912;29;20215;-89
2022/08/10 13:30:42;;;;;;;3.58;2.47;;;23.50;58.70;;;;;;4780079;30;20191;-91
2022/08/10 13:33:31;;;;;;;;;;;;;;;;;;;;;
2022/08/10 13:36:03;;;;;;;3.80;2.63;;;23.60;58.50;;;;;;4709659;30;20239;-88
2022/08/10 13:39:41;;;;;;;3.65;2.60;;;23.60;58.60;;;;;;4730493;30;20194;-88
2022/08/10 13:42:00;;;;;;;2.72;2.47;;;23.50;58.60;;;;;;4723194;30;20198;-88
2022/08/10 13:44:41;;;;;;;;;;;;;;;;;;;;;
2022/08/10 13:47:39;;;;;;;3.10;2.60;;;23.50;58.60;;;;;;4691104;30;20258;-88
2022/08/10 13:50:13;;;;;;;5.80;2.63;;;23.60;58.60;;;;;;4660813;30;20223;-88
2022/08/10 13:53:15;;;;;;;;;;;;;;;;;;;;;
2022/08/10 13:55:55;;;;;;;2.80;2.50;;;23.70;58.50;;;;;;4582239;31;20716;-89
2022/08/10 13:58:32;;;;;;;3.78;2.60;;;23.70;58.20;;;;;;4589844;31;20203;-88
2022/08/10 14:01:19;;;;;;;3.88;2.38;;;23.70;58.30;;;;;;4558051;31;20773;-88
2022/08/10 14:04:06;;;;;;;;;;;;;;;;;;;;;
2022/08/10 14:06:57;;;;;;;3.75;2.53;;;23.80;58.30;;;;;;4561627;31;20255;-88
2022/08/10 14:09:42;;;;;;;2.85;2.55;;;23.70;58.20;;;;;;4582062;31;20192;-88
2022/08/10 14:13:01;;;;;;;3.33;2.60;;;23.70;58.10;;;;;;4618880;31;20256;-88
2022/08/10 14:15:29;;;;;;;4.57;2.92;;;23.70;58.10;;;;;;4632035;30;20242;-88
2022/08/10 14:18:07;;;;;;;6.43;2.50;;;23.80;58.00;;;;;;4639368;31;20194;-88
2022/08/10 14:24:15;;;;;;;3.53;2.63;;;23.80;57.90;;;;;;4668875;30;20195;-89
2022/08/10 14:27:08;;;;;;;2.80;2.60;;;23.90;57.90;;;;;;4663862;30;20196;-89
2022/08/10 14:30:08;;;;;;;2.72;2.50;;;23.80;57.80;;;;;;4686407;30;20632;-89
2022/08/10 14:32:50;;;;;;;3.92;2.75;;;23.90;58.00;;;;;;4741456;30;20216;-90
2022/08/10 14:35:22;;;;;;;3.65;2.22;;;23.90;57.80;;;;;;4830592;29;20330;-89
2022/08/10 14:37:59;;;;;;;5.40;2.70;;;23.90;57.90;;;;;;4829552;29;20202;-90
2022/08/10 14:40:40;;;;;;;9.73;2.90;;;23.90;57.70;;;;;;4799328;30;20347;-91
2022/08/10 14:43:33;;;;;;;4.57;2.38;;;23.90;57.70;;;;;;4813949;29;20186;-91
2022/08/10 14:46:23;;;;;;;5.97;2.47;;;24.00;57.70;;;;;;4804323;29;20175;-90
2022/08/10 14:49:26;;;;;;;;;;;;;;;;;;;;;
2022/08/10 14:52:00;;;;;;;6.72;2.60;;;23.90;57.70;;;;;;4774808;30;20259;-91
2022/08/10 14:54:42;;;;;;;5.03;2.35;;;23.90;57.70;;;;;;4783700;30;20226;-90
2022/08/10 14:57:57;;;;;;;5.53;2.50;;;23.90;57.60;;;;;;4785359;30;20191;-91
2022/08/10 15:00:45;;;;;;;5.95;3.05;;;23.90;57.70;;;;;;4797607;30;20219;-90
2022/08/10 15:03:17;;;;;;;6.28;2.53;;;24.00;57.50;;;;;;4798784;30;20250;-90
2022/08/10 15:06:06;;;;;;;4.68;2.83;;;23.90;57.30;;;;;;4790074;29;20240;-89
2022/08/10 15:09:02;;;;;;;4.15;2.60;;;24.00;57.30;;;;;;4801360;29;20186;-90
2022/08/10 15:11:37;;;;;;;7.85;2.83;;;24.00;56.90;;;;;;4800122;30;20192;-90
2022/08/10 15:14:30;;;;;;;;;;;;;;;;;;;;;
2022/08/10 15:17:00;;;;;;;9.00;3.05;;;24.00;57.50;;;;;;4734656;30;20232;-90
2022/08/10 15:19:43;;;;;;;4.78;2.70;;;23.90;57.40;;;;;;4746497;30;20200;-89
2022/08/10 15:22:29;;;;;;;;;;;;;;;;;;;;;
2022/08/10 15:25:03;;;;;;;4.18;2.38;;;23.90;57.40;;;;;;4672458;30;20299;-91
2022/08/10 15:27:42;;;;;;;6.60;2.50;;;24.00;57.30;;;;;;4671529;30;20650;-90
2022/08/10 15:37:30;;;;;;;10.35;3.03;;;24.00;57.10;;;;;;4657508;30;20733;-90
2022/08/10 15:40:18;;;;;;;7.70;2.80;;;24.00;57.00;;;;;;4642387;30;20248;-90
2022/08/10 15:44:06;;;;;;;9.43;3.25;;;24.00;57.10;;;;;;4668042;30;20189;-91
2022/08/10 15:46:26;;;;;;;9.43;2.90;;;24.00;57.00;;;;;;4690476;30;20187;-88
2022/08/10 15:49:11;;;;;;;8.40;2.80;;;24.00;57.40;;;;;;4659422;30;20192;-89
2022/08/10 15:51:42;;;;;;;10.82;2.67;;;23.90;57.20;;;;;;4687712;30;20270;-90
2022/08/10 15:54:15;;;;;;;5.20;2.72;;;23.90;57.20;;;;;;4705980;30;20694;-89
2022/08/10 15:57:02;;;;;;;5.60;2.58;;;24.00;56.90;;;;;;4655695;30;20240;-90
2022/08/10 15:59:32;;;;;;;4.53;2.65;;;24.00;57.10;;;;;;4651253;30;20194;-90
2022/08/10 16:02:40;;;;;;;10.65;3.28;;;24.00;56.90;;;;;;4667720;30;20221;-90
2022/08/10 16:06:00;;;;;;;8.25;3.40;;;24.00;57.00;;;;;;4674282;30;20211;-91
2022/08/10 16:09:11;;;;;;;;;;;;;;;;;;;;;
2022/08/10 16:12:12;;;;;;;4.95;2.63;;;24.10;56.90;;;;;;4657542;30;20242;-90
2022/08/10 16:20:55;;;;;;;6.10;3.05;;;24.00;56.70;;;;;;4687542;30;20227;-89
2022/08/10 16:30:16;;;;;;;4.35;2.50;;;24.10;56.70;;;;;;4613993;31;20191;-90
2022/08/10 16:33:46;;;;;;;5.40;2.47;;;24.10;56.70;;;;;;4607343;31;20194;-91
2022/08/10 16:36:42;;;;;;;5.00;2.90;;;24.10;56.80;;;;;;4611848;31;20223;-89
2022/08/10 16:39:21;;;;;;;5.70;2.78;;;24.10;56.90;;;;;;4576034;31;20243;-90
2022/08/10 16:42:06;;;;;;;5.47;2.70;;;24.10;57.00;;;;;;4572953;31;20241;-90
2022/08/10 16:44:50;;;;;;;7.22;3.00;;;24.10;57.00;;;;;;4566873;31;20228;-90
2022/08/10 16:48:04;;;;;;;4.60;2.40;;;24.10;57.10;;;;;;4585489;31;20203;-90
2022/08/10 16:50:40;;;;;;;4.10;3.00;;;24.10;57.00;;;;;;4576428;31;20665;-88
2022/08/10 16:53:58;;;;;;;3.90;2.67;;;24.10;57.10;;;;;;4617788;31;20202;-89
2022/08/10 16:56:31;;;;;;;8.02;3.25;;;24.10;57.10;;;;;;4620891;31;20576;-89
2022/08/10 16:59:33;;;;;;;7.85;2.60;;;24.10;57.50;;;;;;4637020;30;20198;-89
2022/08/10 17:02:29;;;;;;;4.13;2.67;;;24.00;57.50;;;;;;4599452;30;20700;-88
2022/08/10 17:05:45;;;;;;;9.60;2.83;;;24.10;57.60;;;;;;4658174;30;20585;-90
2022/08/10 17:07:45;;;;;;;8.63;3.08;;;24.10;57.30;;;;;;4640522;30;20197;-88
2022/08/10 17:10:16;;;;;;;8.98;3.03;;;24.20;57.60;;;;;;4640716;30;20233;-90
2022/08/10 17:12:55;;;;;;;9.10;3.05;;;24.10;57.70;;;;;;4647049;30;20196;-90
2022/08/10 17:15:43;;;;;;;17.65;3.78;;;24.10;57.90;;;;;;4673534;30;20231;-91
2022/08/10 17:18:28;;;;;;;23.45;4.18;;;24.00;58.00;;;;;;4667216;30;20192;-90
2022/08/10 17:21:04;;;;;;;28.40;3.70;;;24.00;58.20;;;;;;4677578;30;20218;-89
2022/08/10 17:23:38;;;;;;;11.90;2.97;;;24.00;58.50;;;;;;4682408;30;20206;-90
2022/08/10 17:26:28;;;;;;;;;;;;;;;;;;;;;
2022/08/10 17:29:11;;;;;;;13.77;2.75;;;24.00;58.30;;;;;;4677582;30;20288;-89
2022/08/10 17:32:14;;;;;;;14.18;2.90;;;24.00;58.20;;;;;;4662171;30;20285;-90
2022/08/10 17:35:02;;;;;;;14.02;3.20;;;24.00;58.10;;;;;;4689901;30;20245;-91
2022/08/10 17:38:09;;;;;;;;;;;;;;;;;;;;;
2022/08/10 17:44:28;;;;;;;9.13;2.83;;;24.00;58.20;;;;;;4742752;30;20196;-91
2022/08/10 17:47:33;;;;;;;10.73;3.17;;;23.90;58.30;;;;;;4741345;30;20204;-90
2022/08/10 17:50:26;;;;;;;9.90;2.95;;;24.00;58.20;;;;;;4704029;30;20198;-90
2022/08/10 17:53:44;;;;;;;;;;;;;;;;;;;;;
2022/08/10 17:56:43;;;;;;;10.30;2.75;;;24.00;58.40;;;;;;4727054;30;20277;-89
2022/08/10 18:00:13;;;;;;;8.77;2.88;;;23.90;58.30;;;;;;4717744;30;20199;-90
2022/08/10 18:21:12;;;;;;;8.00;2.85;;;23.70;58.90;;;;;;4674352;30;20344;-91
2022/08/10 18:32:13;;;;;;;;;;;;;;;;;;;;;
